createdAt,value
2023-04-22T00:00:20.541Z,99638.95
2023-04-22T00:00:43.740Z,99642.88
2023-04-22T00:01:06.916Z,99640.92
2023-04-22T00:01:30.605Z,99638.75
2023-04-22T00:01:53.580Z,99640.21
2023-04-22T00:02:17.566Z,99640.80
2023-04-22T00:02:41.396Z,99643.05
2023-04-22T00:03:05.290Z,99640.94
2023-04-22T00:03:29.149Z,99643.90
2023-04-22T00:03:52.585Z,99644.11
2023-04-22T00:04:16.096Z,99645.44
2023-04-22T00:04:39.787Z,99645.30
2023-04-22T00:05:03.868Z,99647.58
2023-04-22T00:05:27.805Z,99643.23
2023-04-22T00:05:51.233Z,99645.04
2023-04-22T00:06:14.729Z,99645.45
2023-04-22T00:06:37.941Z,99648.83
2023-04-22T00:07:01.158Z,99646.26
2023-04-22T00:07:24.477Z,99647.77
2023-04-22T00:07:47.656Z,99649.73
2023-04-22T00:08:10.698Z,99648.08
2023-04-22T00:08:33.923Z,99648.52
2023-04-22T00:08:57.096Z,99644.88
2023-04-22T00:09:20.146Z,99647.45
2023-04-22T00:09:43.370Z,99650.39
2023-04-22T00:10:07.589Z,99644.87
2023-04-22T00:10:30.733Z,99646.32
2023-04-22T00:10:53.825Z,99649.02
2023-04-22T00:11:17.870Z,99649.46
2023-04-22T00:11:42.816Z,99652.34
2023-04-22T00:12:07.058Z,99651.35
2023-04-22T00:12:30.269Z,99649.53
2023-04-22T00:12:53.383Z,99651.40
2023-04-22T00:13:16.395Z,99651.55
2023-04-22T00:13:39.716Z,99650.47
2023-04-22T00:14:02.727Z,99649.10
2023-04-22T00:14:25.918Z,99647.02
2023-04-22T00:14:48.956Z,99649.56
2023-04-22T00:15:12.271Z,99652.32
2023-04-22T00:15:35.486Z,99647.62
2023-04-22T00:15:58.646Z,99652.11
2023-04-22T00:16:21.978Z,99651.71
2023-04-22T00:16:45.364Z,99653.16
2023-04-22T00:17:08.671Z,99649.99
2023-04-22T00:17:32.810Z,99650.40
2023-04-22T00:17:55.986Z,99652.60
2023-04-22T00:18:19.130Z,99651.14
2023-04-22T00:18:42.277Z,99651.58
2023-04-22T00:19:06.081Z,99654.46
2023-04-22T00:19:29.491Z,99652.96
2023-04-22T00:19:53.227Z,99654.48
2023-04-22T00:20:16.546Z,99653.86
2023-04-22T00:20:43.893Z,99656.02
2023-04-22T00:21:07.983Z,99656.93
2023-04-22T00:21:30.996Z,99653.79
2023-04-22T00:21:54.019Z,99653.71
2023-04-22T00:22:17.027Z,99651.95
2023-04-22T00:22:40.043Z,99656.93
2023-04-22T00:23:03.046Z,99655.47
2023-04-22T00:23:26.482Z,99656.54
2023-04-22T00:23:49.679Z,99656.61
2023-04-22T00:24:12.815Z,99658.23
2023-04-22T00:24:35.909Z,99658.89
2023-04-22T00:24:59.122Z,99658.23
2023-04-22T00:25:22.448Z,99656.44
2023-04-22T00:25:45.661Z,99655.98
2023-04-22T00:26:08.788Z,99657.70
2023-04-22T00:26:33.633Z,99657.85
2023-04-22T00:26:56.642Z,99657.49
2023-04-22T00:27:19.882Z,99657.70
2023-04-22T00:27:43.093Z,99658.59
2023-04-22T00:28:06.546Z,99655.95
2023-04-22T00:28:29.923Z,99655.32
2023-04-22T00:28:53.343Z,99655.90
2023-04-22T00:29:16.345Z,99657.65
2023-04-22T00:29:39.835Z,99659.77
2023-04-22T00:30:03.701Z,99656.88
2023-04-22T00:30:27.189Z,99656.91
2023-04-22T00:30:50.338Z,99658.19
2023-04-22T00:31:13.604Z,99655.98
2023-04-22T00:31:38.577Z,99654.52
2023-04-22T00:32:01.762Z,99655.98
2023-04-22T00:32:25.314Z,99656.77
2023-04-22T00:32:49.320Z,99656.23
2023-04-22T00:33:12.440Z,99658.73
2023-04-22T00:33:36.546Z,99656.88
2023-04-22T00:34:00.068Z,99658.48
2023-04-22T00:34:23.170Z,99657.80
2023-04-22T00:34:46.199Z,99658.16
2023-04-22T00:35:09.727Z,99657.98
2023-04-22T00:35:32.918Z,99658.52
2023-04-22T00:35:55.932Z,99660.17
2023-04-22T00:36:18.952Z,99657.93
2023-04-22T00:36:42.360Z,99660.07
2023-04-22T00:37:05.478Z,99656.45
2023-04-22T00:37:29.616Z,99657.38
2023-04-22T00:37:52.804Z,99657.08
2023-04-22T00:38:16.560Z,99659.02
2023-04-22T00:38:39.687Z,99658.23
2023-04-22T00:39:03.092Z,99657.36
2023-04-22T00:39:26.820Z,99658.36
2023-04-22T00:39:49.936Z,99657.04
2023-04-22T00:40:13.199Z,99658.50
2023-04-22T00:40:36.467Z,99658.59
2023-04-22T00:40:59.572Z,99662.70
2023-04-22T00:41:22.510Z,99658.91
2023-04-22T00:41:46.425Z,99661.96
2023-04-22T00:42:09.650Z,99658.35
2023-04-22T00:42:32.957Z,99658.91
2023-04-22T00:42:57.009Z,99659.69
2023-04-22T00:43:20.249Z,99657.79
2023-04-22T00:43:44.038Z,99660.44
2023-04-22T00:44:09.105Z,99664.31
2023-04-22T00:44:32.141Z,99658.42
2023-04-22T00:44:55.349Z,99659.58
2023-04-22T00:45:19.355Z,99659.81
2023-04-22T00:45:42.687Z,99660.25
2023-04-22T00:46:05.894Z,99660.45
2023-04-22T00:46:29.028Z,99658.73
2023-04-22T00:46:52.585Z,99661.98
2023-04-22T00:47:15.972Z,99661.77
2023-04-22T00:47:39.214Z,99663.48
2023-04-22T00:48:02.527Z,99661.43
2023-04-22T00:48:28.804Z,99661.60
2023-04-22T00:48:52.296Z,99662.95
2023-04-22T00:49:15.530Z,99662.48
2023-04-22T00:49:39.577Z,99663.90
2023-04-22T00:50:03.271Z,99668.52
2023-04-22T00:50:27.205Z,99667.55
2023-04-22T00:50:51.751Z,99666.42
2023-04-22T00:51:14.967Z,99665.87
2023-04-22T00:51:38.079Z,99665.80
2023-04-22T00:52:01.194Z,99666.30
2023-04-22T00:52:24.354Z,99665.17
2023-04-22T00:52:47.627Z,99667.38
2023-04-22T00:53:10.744Z,99668.70
2023-04-22T00:53:33.956Z,99665.06
2023-04-22T00:53:56.969Z,99669.03
2023-04-22T00:54:19.965Z,99667.38
2023-04-22T00:54:43.406Z,99667.81
2023-04-22T00:55:07.128Z,99666.39
2023-04-22T00:55:30.109Z,99670.88
2023-04-22T00:55:53.360Z,99669.21
2023-04-22T00:56:16.575Z,99668.44
2023-04-22T00:56:39.891Z,99667.28
2023-04-22T00:57:04.048Z,99669.95
2023-04-22T00:57:27.248Z,99669.89
2023-04-22T00:57:51.180Z,99666.85
2023-04-22T00:58:14.188Z,99666.91
2023-04-22T00:58:37.099Z,99668.45
2023-04-22T00:59:00.639Z,99669.38
2023-04-22T00:59:23.738Z,99671.68
2023-04-22T00:59:47.158Z,99669.23
2023-04-22T01:00:10.495Z,99667.35
2023-04-22T01:00:34.741Z,99670.10
2023-04-22T01:00:58.630Z,99671.21
2023-04-22T01:01:23.147Z,99670.45
2023-04-22T01:01:46.549Z,99668.89
2023-04-22T01:02:09.844Z,99668.20
2023-04-22T01:02:33.413Z,99670.36
2023-04-22T01:02:56.949Z,99670.13
2023-04-22T01:03:20.793Z,99668.64
2023-04-22T01:03:44.335Z,99670.89
2023-04-22T01:04:07.886Z,99668.88
2023-04-22T01:04:31.576Z,99670.82
2023-04-22T01:04:54.700Z,99670.73
2023-04-22T01:05:17.912Z,99672.60
2023-04-22T01:05:41.439Z,99672.21
2023-04-22T01:06:04.591Z,99673.36
2023-04-22T01:06:28.303Z,99669.43
2023-04-22T01:06:54.470Z,99669.41
2023-04-22T01:07:17.616Z,99669.59
2023-04-22T01:07:40.909Z,99669.72
2023-04-22T01:08:04.015Z,99670.35
2023-04-22T01:08:28.658Z,99669.42
2023-04-22T01:08:51.823Z,99671.50
2023-04-22T01:09:15.091Z,99670.81
2023-04-22T01:09:40.103Z,99669.39
2023-04-22T01:10:04.197Z,99670.24
2023-04-22T01:10:28.119Z,99668.89
2023-04-22T01:10:51.448Z,99669.36
2023-04-22T01:11:14.654Z,99670.15
2023-04-22T01:11:39.090Z,99669.06
2023-04-22T01:12:02.526Z,99670.19
2023-04-22T01:12:25.933Z,99670.85
2023-04-22T01:12:49.663Z,99667.75
2023-04-22T01:13:12.886Z,99671.55
2023-04-22T01:13:38.427Z,99669.80
2023-04-22T01:14:01.768Z,99667.51
2023-04-22T01:14:24.980Z,99671.45
2023-04-22T01:14:48.301Z,99671.35
2023-04-22T01:15:11.733Z,99669.00
2023-04-22T01:15:34.944Z,99669.98
2023-04-22T01:15:58.104Z,99671.17
2023-04-22T01:16:21.217Z,99670.24
2023-04-22T01:16:44.682Z,99670.57
2023-04-22T01:17:10.285Z,99671.94
2023-04-22T01:17:33.994Z,99671.67
2023-04-22T01:17:57.256Z,99668.85
2023-04-22T01:18:20.729Z,99671.75
2023-04-22T01:18:43.942Z,99670.97
2023-04-22T01:19:08.389Z,99671.27
2023-04-22T01:19:33.143Z,99673.33
2023-04-22T01:19:56.357Z,99672.80
2023-04-22T01:20:19.666Z,99673.35
2023-04-22T01:20:42.890Z,99671.90
2023-04-22T01:21:07.372Z,99671.77
2023-04-22T01:21:33.745Z,99672.52
2023-04-22T01:21:57.349Z,99671.77
2023-04-22T01:22:20.458Z,99674.22
2023-04-22T01:22:44.800Z,99671.94
2023-04-22T01:23:10.265Z,99671.28
2023-04-22T01:23:33.787Z,99670.27
2023-04-22T01:23:56.904Z,99672.80
2023-04-22T01:24:20.223Z,99672.20
2023-04-22T01:24:43.440Z,99673.23
2023-04-22T01:25:07.109Z,99672.56
2023-04-22T01:25:30.574Z,99673.77
2023-04-22T01:25:53.799Z,99672.66
2023-04-22T01:26:17.022Z,99670.30
2023-04-22T01:26:40.234Z,99670.29
2023-04-22T01:27:03.453Z,99672.13
2023-04-22T01:27:26.812Z,99671.70
2023-04-22T01:27:49.962Z,99671.11
2023-04-22T01:28:13.307Z,99672.42
2023-04-22T01:28:36.831Z,99674.09
2023-04-22T01:29:01.389Z,99670.48
2023-04-22T01:29:24.796Z,99675.69
2023-04-22T01:29:47.809Z,99669.88
2023-04-22T01:30:11.663Z,99673.41
2023-04-22T01:30:35.676Z,99670.99
2023-04-22T01:30:58.783Z,99672.53
2023-04-22T01:31:21.982Z,99675.36
2023-04-22T01:31:45.174Z,99671.30
2023-04-22T01:32:08.462Z,99678.17
2023-04-22T01:32:32.420Z,99672.13
2023-04-22T01:32:55.468Z,99672.92
2023-04-22T01:33:18.617Z,99676.88
2023-04-22T01:33:41.709Z,99674.11
2023-04-22T01:34:05.128Z,99677.11
2023-04-22T01:34:28.653Z,99675.38
2023-04-22T01:34:51.711Z,99669.98
2023-04-22T01:35:15.012Z,99673.71
2023-04-22T01:35:38.302Z,99676.90
2023-04-22T01:36:01.438Z,99676.00
2023-04-22T01:36:24.736Z,99673.33
2023-04-22T01:36:47.858Z,99677.09
2023-04-22T01:37:11.065Z,99677.48
2023-04-22T01:37:34.689Z,99676.00
2023-04-22T01:37:58.435Z,99676.10
2023-04-22T01:38:21.389Z,99680.55
2023-04-22T01:38:44.544Z,99677.39
2023-04-22T01:39:07.680Z,99676.39
2023-04-22T01:39:31.600Z,99675.64
2023-04-22T01:39:55.052Z,99679.61
2023-04-22T01:40:19.988Z,99682.92
2023-04-22T01:40:43.080Z,99682.30
2023-04-22T01:41:06.612Z,99681.71
2023-04-22T01:41:30.229Z,99682.14
2023-04-22T01:41:53.778Z,99682.52
2023-04-22T01:42:16.868Z,99679.57
2023-04-22T01:42:40.085Z,99680.45
2023-04-22T01:43:03.412Z,99680.94
2023-04-22T01:43:26.724Z,99681.58
2023-04-22T01:43:50.143Z,99683.11
2023-04-22T01:44:13.152Z,99682.50
2023-04-22T01:44:36.388Z,99684.52
2023-04-22T01:44:59.997Z,99680.69
2023-04-22T01:45:22.924Z,99678.33
2023-04-22T01:45:46.867Z,99679.40
2023-04-22T01:46:10.474Z,99676.71
2023-04-22T01:46:33.933Z,99680.23
2023-04-22T01:46:57.200Z,99680.91
2023-04-22T01:47:20.518Z,99679.63
2023-04-22T01:47:44.416Z,99676.60
2023-04-22T01:48:07.532Z,99675.02
2023-04-22T01:48:31.107Z,99676.66
2023-04-22T01:48:54.140Z,99680.73
2023-04-22T01:49:18.567Z,99679.03
2023-04-22T01:49:42.320Z,99679.30
2023-04-22T01:50:06.210Z,99678.84
2023-04-22T01:50:29.327Z,99676.26
2023-04-22T01:50:52.641Z,99676.88
2023-04-22T01:51:16.776Z,99678.08
2023-04-22T01:51:40.481Z,99680.69
2023-04-22T01:52:03.510Z,99681.85
2023-04-22T01:52:27.761Z,99678.10
2023-04-22T01:52:50.866Z,99678.09
2023-04-22T01:53:14.187Z,99680.84
2023-04-22T01:53:37.298Z,99678.39
2023-04-22T01:54:00.313Z,99681.33
2023-04-22T01:54:23.424Z,99680.61
2023-04-22T01:54:47.254Z,99678.98
2023-04-22T01:55:10.581Z,99682.56
2023-04-22T01:55:36.311Z,99683.34
2023-04-22T01:56:00.232Z,99676.23
2023-04-22T01:56:23.601Z,99683.49
2023-04-22T01:56:53.255Z,99681.64
2023-04-22T01:57:16.675Z,99680.16
2023-04-22T01:57:40.408Z,99680.61
2023-04-22T01:58:03.746Z,99678.83
2023-04-22T01:58:30.415Z,99677.24
2023-04-22T01:58:53.949Z,99674.67
2023-04-22T01:59:17.105Z,99675.98
2023-04-22T01:59:40.769Z,99680.31
2023-04-22T02:00:05.690Z,99677.42
2023-04-22T02:00:35.925Z,99682.98
2023-04-22T02:00:59.363Z,99682.06
2023-04-22T02:01:22.532Z,99680.05
2023-04-22T02:01:46.151Z,99678.06
2023-04-22T02:02:09.702Z,99681.33
2023-04-22T02:02:33.100Z,99677.94
2023-04-22T02:02:56.358Z,99679.34
2023-04-22T02:03:20.443Z,99678.39
2023-04-22T02:03:44.510Z,99677.78
2023-04-22T02:04:08.948Z,99679.69
2023-04-22T02:04:32.392Z,99680.13
2023-04-22T02:04:56.032Z,99678.51
2023-04-22T02:05:19.368Z,99676.70
2023-04-22T02:05:42.564Z,99678.41
2023-04-22T02:06:05.848Z,99681.99
2023-04-22T02:06:29.068Z,99681.04
2023-04-22T02:06:52.791Z,99677.04
2023-04-22T02:07:16.007Z,99682.38
2023-04-22T02:07:39.324Z,99679.45
2023-04-22T02:08:03.681Z,99681.50
2023-04-22T02:08:26.885Z,99680.05
2023-04-22T02:08:50.594Z,99680.57
2023-04-22T02:09:15.153Z,99680.54
2023-04-22T02:09:38.854Z,99681.66
2023-04-22T02:10:05.890Z,99679.79
2023-04-22T02:10:29.115Z,99683.29
2023-04-22T02:10:52.317Z,99679.69
2023-04-22T02:11:15.994Z,99684.14
2023-04-22T02:11:39.070Z,99679.90
2023-04-22T02:12:02.680Z,99681.95
2023-04-22T02:12:26.126Z,99681.23
2023-04-22T02:12:49.114Z,99681.52
2023-04-22T02:13:12.190Z,99683.90
2023-04-22T02:13:38.722Z,99682.55
2023-04-22T02:14:01.726Z,99682.86
2023-04-22T02:14:24.966Z,99679.07
2023-04-22T02:14:48.267Z,99684.05
2023-04-22T02:15:11.588Z,99684.39
2023-04-22T02:15:34.615Z,99679.80
2023-04-22T02:15:57.819Z,99681.64
2023-04-22T02:16:21.211Z,99683.46
2023-04-22T02:16:45.161Z,99683.17
2023-04-22T02:17:08.625Z,99686.19
2023-04-22T02:17:31.900Z,99684.82
2023-04-22T02:17:55.019Z,99682.95
2023-04-22T02:18:18.856Z,99686.59
2023-04-22T02:18:41.928Z,99686.20
2023-04-22T02:19:05.078Z,99687.09
2023-04-22T02:19:29.753Z,99685.42
2023-04-22T02:19:52.923Z,99687.90
2023-04-22T02:20:16.286Z,99684.15
2023-04-22T02:20:41.110Z,99689.31
2023-04-22T02:21:04.179Z,99684.64
2023-04-22T02:21:30.406Z,99684.54
2023-04-22T02:21:53.518Z,99685.88
2023-04-22T02:22:17.146Z,99686.12
2023-04-22T02:22:41.707Z,99684.10
2023-04-22T02:23:04.711Z,99685.15
2023-04-22T02:23:28.435Z,99683.30
2023-04-22T02:23:51.538Z,99684.13
2023-04-22T02:24:14.461Z,99683.60
2023-04-22T02:24:37.482Z,99684.72
2023-04-22T02:25:01.513Z,99684.50
2023-04-22T02:25:24.729Z,99682.95
2023-04-22T02:25:48.666Z,99684.67
2023-04-22T02:26:12.786Z,99683.55
2023-04-22T02:26:36.209Z,99684.55
2023-04-22T02:26:59.129Z,99683.56
2023-04-22T02:27:22.345Z,99686.21
2023-04-22T02:27:45.363Z,99685.52
2023-04-22T02:28:08.698Z,99684.52
2023-04-22T02:28:33.207Z,99683.11
2023-04-22T02:28:56.302Z,99687.30
2023-04-22T02:29:19.266Z,99687.71
2023-04-22T02:29:43.786Z,99684.52
2023-04-22T02:30:07.528Z,99685.32
2023-04-22T02:30:31.338Z,99682.86
2023-04-22T02:30:54.527Z,99683.17
2023-04-22T02:31:18.733Z,99683.08
2023-04-22T02:31:42.952Z,99684.38
2023-04-22T02:32:06.555Z,99682.84
2023-04-22T02:32:30.517Z,99683.88
2023-04-22T02:32:53.737Z,99682.98
2023-04-22T02:33:16.882Z,99683.46
2023-04-22T02:33:40.037Z,99683.80
2023-04-22T02:34:05.202Z,99682.77
2023-04-22T02:34:28.508Z,99681.52
2023-04-22T02:34:51.831Z,99680.43
2023-04-22T02:35:15.481Z,99682.58
2023-04-22T02:35:38.549Z,99686.35
2023-04-22T02:36:01.802Z,99682.23
2023-04-22T02:36:25.411Z,99686.67
2023-04-22T02:36:48.527Z,99689.46
2023-04-22T02:37:11.943Z,99685.97
2023-04-22T02:37:35.055Z,99685.73
2023-04-22T02:37:58.180Z,99687.04
2023-04-22T02:38:21.801Z,99686.01
2023-04-22T02:38:45.118Z,99686.83
2023-04-22T02:39:11.501Z,99687.23
2023-04-22T02:39:34.627Z,99686.42
2023-04-22T02:39:57.657Z,99687.17
2023-04-22T02:40:21.427Z,99690.00
2023-04-22T02:40:44.472Z,99688.27
2023-04-22T02:41:08.302Z,99687.11
2023-04-22T02:41:32.334Z,99688.61
2023-04-22T02:41:55.753Z,99690.42
2023-04-22T02:42:19.174Z,99692.70
2023-04-22T02:42:42.494Z,99690.88
2023-04-22T02:43:05.607Z,99688.73
2023-04-22T02:43:30.463Z,99688.30
2023-04-22T02:43:53.682Z,99689.22
2023-04-22T02:44:16.792Z,99687.36
2023-04-22T02:44:40.118Z,99689.58
2023-04-22T02:45:03.457Z,99686.11
2023-04-22T02:45:26.569Z,99691.13
2023-04-22T02:45:49.661Z,99689.64
2023-04-22T02:46:13.664Z,99691.21
2023-04-22T02:46:36.717Z,99686.91
2023-04-22T02:46:59.857Z,99687.48
2023-04-22T02:47:23.592Z,99687.35
2023-04-22T02:47:46.723Z,99692.43
2023-04-22T02:48:11.328Z,99690.81
2023-04-22T02:48:35.447Z,99691.52
2023-04-22T02:49:00.303Z,99690.56
2023-04-22T02:49:23.751Z,99693.30
2023-04-22T02:49:47.051Z,99690.42
2023-04-22T02:50:10.808Z,99694.79
2023-04-22T02:50:34.181Z,99691.59
2023-04-22T02:50:57.403Z,99692.57
2023-04-22T02:51:21.756Z,99694.08
2023-04-22T02:51:45.068Z,99689.85
2023-04-22T02:52:08.177Z,99693.70
2023-04-22T02:52:31.215Z,99692.48
2023-04-22T02:52:54.356Z,99690.90
2023-04-22T02:53:17.518Z,99692.88
2023-04-22T02:53:41.044Z,99694.86
2023-04-22T02:54:04.157Z,99691.25
2023-04-22T02:54:27.783Z,99698.42
2023-04-22T02:54:50.891Z,99689.52
2023-04-22T02:55:14.032Z,99693.16
2023-04-22T02:55:37.225Z,99698.59
2023-04-22T02:56:00.850Z,99694.58
2023-04-22T02:56:24.638Z,99696.75
2023-04-22T02:56:47.805Z,99697.54
2023-04-22T02:57:10.826Z,99700.13
2023-04-22T02:57:33.855Z,99695.98
2023-04-22T02:57:56.930Z,99693.38
2023-04-22T02:58:19.965Z,99697.59
2023-04-22T02:58:43.273Z,99696.32
2023-04-22T02:59:06.681Z,99696.58
2023-04-22T02:59:31.026Z,99702.88
2023-04-22T02:59:54.241Z,99699.48
2023-04-22T03:00:17.892Z,99700.00
2023-04-22T03:00:41.084Z,99699.39
2023-04-22T03:01:04.387Z,99701.63
2023-04-22T03:01:28.081Z,99703.89
2023-04-22T03:01:52.447Z,99702.98
2023-04-22T03:02:29.498Z,99700.83
2023-04-22T03:03:08.723Z,99706.08
2023-04-22T03:03:32.304Z,99704.65
2023-04-22T03:03:56.472Z,99705.24
2023-04-22T03:04:22.263Z,99707.19
2023-04-22T03:04:45.724Z,99704.61
2023-04-22T03:05:10.266Z,99705.27
2023-04-22T03:05:33.335Z,99707.22
2023-04-22T03:05:57.419Z,99708.00
2023-04-22T03:06:21.047Z,99708.47
2023-04-22T03:06:44.596Z,99705.68
2023-04-22T03:07:07.887Z,99704.20
2023-04-22T03:07:31.434Z,99706.52
2023-04-22T03:07:54.960Z,99707.73
2023-04-22T03:08:19.027Z,99704.36
2023-04-22T03:08:42.081Z,99708.50
2023-04-22T03:09:05.297Z,99709.09
2023-04-22T03:09:28.820Z,99708.66
2023-04-22T03:09:51.894Z,99709.30
2023-04-22T03:10:15.259Z,99710.98
2023-04-22T03:10:38.475Z,99708.70
2023-04-22T03:11:02.884Z,99709.61
2023-04-22T03:11:26.638Z,99710.77
2023-04-22T03:11:49.861Z,99711.70
2023-04-22T03:12:13.068Z,99711.92
2023-04-22T03:12:36.289Z,99714.30
2023-04-22T03:12:59.913Z,99715.29
2023-04-22T03:13:23.348Z,99712.63
2023-04-22T03:13:46.959Z,99715.30
2023-04-22T03:14:10.307Z,99710.81
2023-04-22T03:14:33.411Z,99715.93
2023-04-22T03:14:56.608Z,99715.96
2023-04-22T03:15:21.637Z,99714.44
2023-04-22T03:15:44.982Z,99719.63
2023-04-22T03:16:08.737Z,99717.45
2023-04-22T03:16:33.085Z,99719.09
2023-04-22T03:16:58.645Z,99721.17
2023-04-22T03:17:22.731Z,99718.98
2023-04-22T03:17:46.056Z,99717.45
2023-04-22T03:18:09.816Z,99718.74
2023-04-22T03:18:34.322Z,99722.12
2023-04-22T03:18:57.287Z,99724.36
2023-04-22T03:19:20.379Z,99720.92
2023-04-22T03:19:44.066Z,99721.21
2023-04-22T03:20:08.343Z,99723.21
2023-04-22T03:20:31.353Z,99723.25
2023-04-22T03:20:54.475Z,99724.22
2023-04-22T03:21:17.690Z,99725.34
2023-04-22T03:21:41.023Z,99724.39
2023-04-22T03:22:04.526Z,99723.72
2023-04-22T03:22:28.170Z,99727.66
2023-04-22T03:22:53.517Z,99722.45
2023-04-22T03:23:17.163Z,99724.39
2023-04-22T03:23:40.422Z,99726.85
2023-04-22T03:24:03.929Z,99729.81
2023-04-22T03:24:29.149Z,99727.02
2023-04-22T03:24:52.566Z,99729.88
2023-04-22T03:25:15.788Z,99728.91
2023-04-22T03:25:43.292Z,99730.56
2023-04-22T03:26:06.301Z,99730.13
2023-04-22T03:26:29.318Z,99734.56
2023-04-22T03:26:52.560Z,99734.98
2023-04-22T03:27:15.849Z,99734.81
2023-04-22T03:27:39.319Z,99736.63
2023-04-22T03:28:03.007Z,99735.19
2023-04-22T03:28:26.834Z,99734.85
2023-04-22T03:28:50.045Z,99737.91
2023-04-22T03:29:13.179Z,99733.93
2023-04-22T03:29:36.331Z,99736.46
2023-04-22T03:29:59.248Z,99739.61
2023-04-22T03:30:22.400Z,99743.18
2023-04-22T03:30:45.643Z,99738.82
2023-04-22T03:31:09.240Z,99737.54
2023-04-22T03:31:32.625Z,99738.96
2023-04-22T03:31:56.054Z,99743.29
2023-04-22T03:32:19.532Z,99740.69
2023-04-22T03:32:43.469Z,99742.87
2023-04-22T03:33:27.720Z,99741.77
2023-04-22T03:33:55.248Z,99744.58
2023-04-22T03:34:24.278Z,99743.39
2023-04-22T03:34:47.396Z,99745.95
2023-04-22T03:35:10.827Z,99747.73
2023-04-22T03:35:34.244Z,99745.29
2023-04-22T03:35:57.280Z,99746.39
2023-04-22T03:36:21.587Z,99749.80
2023-04-22T03:36:44.906Z,99748.11
2023-04-22T03:37:09.356Z,99750.68
2023-04-22T03:37:32.672Z,99748.66
2023-04-22T03:37:56.091Z,99749.15
2023-04-22T03:38:23.603Z,99750.58
2023-04-22T03:38:47.239Z,99750.31
2023-04-22T03:39:10.955Z,99751.57
2023-04-22T03:39:34.823Z,99749.36
2023-04-22T03:39:58.093Z,99750.05
2023-04-22T03:40:21.320Z,99752.20
2023-04-22T03:40:45.150Z,99752.56
2023-04-22T03:41:19.821Z,99753.73
2023-04-22T03:41:44.162Z,99752.13
2023-04-22T03:42:07.584Z,99753.39
2023-04-22T03:42:31.518Z,99753.13
2023-04-22T03:42:55.151Z,99753.69
2023-04-22T03:43:18.503Z,99755.44
2023-04-22T03:43:48.940Z,99754.34
2023-04-22T03:44:13.074Z,99754.02
2023-04-22T03:44:35.998Z,99754.60
2023-04-22T03:44:59.446Z,99756.58
2023-04-22T03:45:23.236Z,99755.27
2023-04-22T03:46:05.031Z,99757.27
2023-04-22T03:46:30.337Z,99760.41
2023-04-22T03:47:04.491Z,99759.59
2023-04-22T03:47:31.706Z,99759.55
2023-04-22T03:47:58.554Z,99756.25
2023-04-22T03:48:30.143Z,99759.11
2023-04-22T03:48:53.510Z,99761.23
2023-04-22T03:49:22.043Z,99761.89
2023-04-22T03:49:45.480Z,99760.02
2023-04-22T03:50:08.964Z,99761.33
2023-04-22T03:50:33.337Z,99762.42
2023-04-22T03:50:56.893Z,99762.14
2023-04-22T03:51:20.806Z,99763.14
2023-04-22T03:51:44.208Z,99763.84
2023-04-22T03:52:09.879Z,99763.48
2023-04-22T03:52:33.409Z,99764.52
2023-04-22T03:52:57.040Z,99769.00
2023-04-22T03:53:20.110Z,99764.27
2023-04-22T03:53:43.463Z,99766.01
2023-04-22T03:54:08.598Z,99763.55
2023-04-22T03:54:32.561Z,99763.39
2023-04-22T03:54:55.796Z,99767.81
2023-04-22T03:55:18.897Z,99767.52
2023-04-22T03:55:42.611Z,99762.79
2023-04-22T03:56:05.783Z,99767.13
2023-04-22T03:56:31.085Z,99768.92
2023-04-22T03:56:55.946Z,99771.11
2023-04-22T03:57:19.484Z,99769.39
2023-04-22T03:57:42.680Z,99768.02
2023-04-22T03:58:06.099Z,99772.40
2023-04-22T03:58:29.621Z,99773.73
2023-04-22T03:58:53.150Z,99769.20
2023-04-22T03:59:17.696Z,99769.03
2023-04-22T03:59:41.531Z,99769.55
2023-04-22T04:00:05.848Z,99773.02
2023-04-22T04:00:37.876Z,99774.35
2023-04-22T04:01:05.802Z,99776.30
2023-04-22T04:01:29.224Z,99774.25
2023-04-22T04:01:55.265Z,99774.58
2023-04-22T04:02:21.522Z,99774.41
2023-04-22T04:02:45.153Z,99774.67
2023-04-22T04:03:09.350Z,99777.46
2023-04-22T04:03:33.321Z,99776.77
2023-04-22T04:03:57.078Z,99777.13
2023-04-22T04:04:24.046Z,99777.29
2023-04-22T04:04:51.907Z,99777.04
2023-04-22T04:05:15.539Z,99776.94
2023-04-22T04:05:38.703Z,99773.83
2023-04-22T04:06:02.163Z,99776.31
2023-04-22T04:06:26.741Z,99776.86
2023-04-22T04:06:49.858Z,99778.19
2023-04-22T04:07:13.676Z,99775.25
2023-04-22T04:07:37.105Z,99779.87
2023-04-22T04:08:00.109Z,99773.82
2023-04-22T04:08:23.639Z,99777.59
2023-04-22T04:08:46.772Z,99777.13
2023-04-22T04:09:09.965Z,99779.64
2023-04-22T04:09:33.078Z,99780.59
2023-04-22T04:09:56.498Z,99781.95
2023-04-22T04:10:19.819Z,99782.50
2023-04-22T04:10:43.443Z,99783.22
2023-04-22T04:11:06.742Z,99784.98
2023-04-22T04:11:30.795Z,99781.41
2023-04-22T04:11:54.115Z,99782.80
2023-04-22T04:12:17.533Z,99782.20
2023-04-22T04:12:40.789Z,99781.91
2023-04-22T04:13:03.876Z,99784.27
2023-04-22T04:13:32.634Z,99781.33
2023-04-22T04:14:15.047Z,99781.89
2023-04-22T04:14:42.151Z,99787.41
2023-04-22T04:15:06.595Z,99782.75
2023-04-22T04:15:30.730Z,99782.52
2023-04-22T04:15:54.076Z,99784.02
2023-04-22T04:16:17.195Z,99782.63
2023-04-22T04:16:41.194Z,99783.73
2023-04-22T04:17:14.228Z,99783.77
2023-04-22T04:17:38.595Z,99783.15
2023-04-22T04:18:03.077Z,99785.52
2023-04-22T04:18:29.740Z,99781.72
2023-04-22T04:18:53.057Z,99785.34
2023-04-22T04:19:17.184Z,99781.79
2023-04-22T04:19:40.771Z,99783.66
2023-04-22T04:20:04.724Z,99781.11
2023-04-22T04:20:28.861Z,99782.27
2023-04-22T04:20:51.979Z,99786.33
2023-04-22T04:21:15.197Z,99781.51
2023-04-22T04:21:43.646Z,99785.35
2023-04-22T04:22:07.073Z,99783.81
2023-04-22T04:22:33.738Z,99786.05
2023-04-22T04:22:57.160Z,99783.80
2023-04-22T04:23:20.375Z,99788.36
2023-04-22T04:23:44.001Z,99787.99
2023-04-22T04:24:07.173Z,99788.61
2023-04-22T04:24:36.836Z,99788.45
2023-04-22T04:25:07.012Z,99788.75
2023-04-22T04:25:38.244Z,99789.34
2023-04-22T04:26:03.402Z,99790.91
2023-04-22T04:26:29.991Z,99791.11
2023-04-22T04:26:59.854Z,99789.70
2023-04-22T04:27:27.163Z,99788.70
2023-04-22T04:27:51.945Z,99788.31
2023-04-22T04:28:15.029Z,99792.31
2023-04-22T04:28:38.250Z,99790.63
2023-04-22T04:29:01.986Z,99791.18
2023-04-22T04:29:25.496Z,99789.30
2023-04-22T04:29:59.459Z,99791.91
2023-04-22T04:30:38.571Z,99795.88
2023-04-22T04:31:05.767Z,99790.38
2023-04-22T04:31:29.156Z,99793.19
2023-04-22T04:31:53.050Z,99795.44
2023-04-22T04:32:18.435Z,99792.83
2023-04-22T04:32:43.087Z,99792.71
2023-04-22T04:33:08.183Z,99792.98
2023-04-22T04:33:34.542Z,99796.31
2023-04-22T04:33:57.949Z,99793.98
2023-04-22T04:34:21.171Z,99794.04
2023-04-22T04:34:44.602Z,99799.17
2023-04-22T04:35:08.534Z,99796.96
2023-04-22T04:35:34.504Z,99796.25
2023-04-22T04:35:58.635Z,99796.63
2023-04-22T04:36:29.457Z,99800.17
2023-04-22T04:36:57.955Z,99801.85
2023-04-22T04:37:27.411Z,99799.38
2023-04-22T04:37:56.775Z,99801.02
2023-04-22T04:38:20.086Z,99799.14
2023-04-22T04:38:43.982Z,99800.53
2023-04-22T04:39:09.820Z,99800.90
2023-04-22T04:39:33.820Z,99803.73
2023-04-22T04:39:59.515Z,99802.94
2023-04-22T04:40:29.402Z,99800.90
2023-04-22T04:41:05.590Z,99797.91
2023-04-22T04:41:29.659Z,99803.83
2023-04-22T04:41:55.435Z,99802.83
2023-04-22T04:42:20.022Z,99802.52
2023-04-22T04:42:48.152Z,99802.10